< < Back
Terminal Aerodrome Forecast


Current Version              Previous Versions:   1  2  3  4  5  6  7  8  9  

Terminal Aerodrome Forecast

653
FTUS42 KMLB 202351
TAFMCO
TAF
KMCO 202351Z 2100/2124 VRB05KT P6SM SCT045 BKN100
      TEMPO 2100/2101 -SHRA BKN045
     FM210800 VRB03KT 4SM BR BKN010
     FM211400 29005KT P6SM SCT015 BKN150
     FM211800 33005KT P6SM SCT040 BKN150=

Latest METAR

683
SAUS70 KWBC 210800 RRG
MTRMCO
METAR KMCO 210753Z 19004KT 10SM FEW050 BKN180 BKN240 20/19 A2993 RMK AO2
SLP133 T02000194


USA.gov is the U.S. government's official web portal to all federal, state and local government web resources and services.